Time;durP1;ratioP1;P1;durP2;ratioP2;P2;SDS_P1;SDS_P2;PMS_P1;PMS_P2;Temp;Humidity;BMP_temperature;BMP_pressure;BME280_temperature;BME280_humidity;BME280_pressure;Samples;Min_cycle;Max_cycle;Signal;HPM_P1;HPM_P2
2023/10/12 00:02:00;;;;;;;18.02;5.92;;;;;;;20.63;65.69;100196.69;2386519;73;51431;-73
2023/10/12 00:05:06;;;;;;;16.10;5.83;;;;;;;20.63;65.82;100196.69;2386702;72;51559;-73
2023/10/12 00:08:10;;;;;;;18.17;5.90;;;;;;;20.62;65.73;100189.64;2398005;73;22328;-73
2023/10/12 00:11:13;;;;;;;16.48;5.92;;;;;;;20.64;65.71;100188.92;2398933;73;50639;-74
2023/10/12 00:14:15;;;;;;;18.12;5.22;;;;;;;20.62;65.82;100199.87;2396431;73;50257;-72
2023/10/12 00:17:17;;;;;;;14.47;5.72;;;;;;;20.61;65.74;100191.50;2397728;73;51672;-73
2023/10/12 00:20:37;;;;;;;16.97;5.55;;;;;;;20.60;65.82;100192.55;2396432;73;51969;-73
2023/10/12 00:23:26;;;;;;;17.77;5.78;;;;;;;20.62;65.67;100193.15;2393066;73;22309;-74
2023/10/12 00:26:31;;;;;;;17.32;6.12;;;;;;;20.64;65.57;100199.67;2397903;73;51684;-73
2023/10/12 00:29:33;;;;;;;16.93;6.45;;;;;;;20.62;65.61;100197.18;2424635;73;22422;-75
2023/10/12 00:32:36;;;;;;;21.97;6.12;;;;;;;20.62;65.54;100197.18;2425098;72;50639;-74
2023/10/12 00:35:39;;;;;;;19.37;6.20;;;;;;;20.62;65.47;100190.45;2421996;73;51526;-74
2023/10/12 00:38:41;;;;;;;15.30;5.80;;;;;;;20.61;65.45;100195.54;2393842;73;50665;-74
2023/10/12 00:41:44;;;;;;;15.43;5.40;;;;;;;20.63;65.31;100186.76;2364369;73;51700;-75
2023/10/12 00:44:52;;;;;;;18.70;6.30;;;;;;;20.62;65.29;100193.15;2393870;73;50661;-74
2023/10/12 00:47:52;;;;;;;16.73;5.55;;;;;;;20.61;65.33;100187.47;2416243;72;22802;-74
2023/10/12 00:50:56;;;;;;;15.83;5.83;;;;;;;20.61;65.28;100193.37;2365199;73;51694;-73
2023/10/12 00:53:58;;;;;;;21.85;6.17;;;;;;;20.61;65.35;100197.41;2417574;73;25861;-73
2023/10/12 00:57:05;;;;;;;16.48;5.75;;;;;;;20.62;65.44;100192.33;2417326;73;51474;-73
2023/10/12 01:00:18;;;;;;;17.67;6.37;;;;;;;20.62;65.42;100198.52;2391492;73;22169;-73
2023/10/12 01:03:31;;;;;;;16.77;5.70;;;;;;;20.62;65.33;100204.42;2395075;73;22365;-73
2023/10/12 01:06:33;;;;;;;17.75;5.62;;;;;;;20.62;65.32;100203.90;2383785;73;22301;-75
2023/10/12 01:09:19;;;;;;;12.40;5.65;;;;;;;20.62;65.29;100197.18;2413171;73;22486;-74
2023/10/12 01:12:30;;;;;;;13.05;6.25;;;;;;;20.63;65.31;100200.20;2424311;73;51533;-75
2023/10/12 01:15:29;;;;;;;15.32;5.87;;;;;;;20.62;65.26;100197.18;2421204;72;22243;-74
2023/10/12 01:18:29;;;;;;;14.60;5.70;;;;;;;20.61;65.30;100200.91;2396529;73;22413;-75
2023/10/12 01:21:35;;;;;;;16.40;5.62;;;;;;;20.60;65.24;100200.62;2396108;73;51537;-75
2023/10/12 01:24:36;;;;;;;13.58;5.25;;;;;;;20.61;65.29;100190.16;2396534;73;22788;-75
2023/10/12 01:27:43;;;;;;;15.40;6.08;;;;;;;20.61;65.24;100194.72;2424432;73;51582;-74
2023/10/12 01:30:45;;;;;;;12.53;5.30;;;;;;;20.61;65.17;100190.16;2422601;73;51551;-75
2023/10/12 01:33:51;;;;;;;13.60;5.30;;;;;;;20.61;65.15;100198.23;2406382;73;50606;-72
2023/10/12 01:36:55;;;;;;;12.50;5.25;;;;;;;20.60;65.15;100191.20;2394551;73;22437;-73
2023/10/12 01:40:21;;;;;;;12.85;5.72;;;;;;;20.61;65.11;100186.66;2417610;72;22234;-74
2023/10/12 01:43:03;;;;;;;17.12;5.80;;;;;;;20.62;65.12;100176.20;2407268;73;22211;-73
2023/10/12 01:46:08;;;;;;;13.20;5.67;;;;;;;20.62;65.09;100178.36;2392095;73;51423;-74
2023/10/12 01:49:14;;;;;;;15.45;5.67;;;;;;;20.61;65.11;100179.93;2394459;73;50395;-73
2023/10/12 01:52:19;;;;;;;12.35;5.42;;;;;;;20.62;65.09;100174.86;2417232;73;51491;-75
2023/10/12 01:55:29;;;;;;;15.35;5.47;;;;;;;20.60;65.05;100173.73;2394580;73;22344;-75
2023/10/12 01:58:28;;;;;;;13.18;5.20;;;;;;;20.62;65.10;100186.42;2391877;73;22392;-75
2023/10/12 02:01:33;;;;;;;12.95;5.37;;;;;;;20.61;65.03;100191.50;2418682;73;50775;-74
2023/10/12 02:04:40;;;;;;;11.43;4.83;;;;;;;20.61;64.96;100186.13;2396986;73;23060;-74
2023/10/12 02:07:39;;;;;;;14.00;5.72;;;;;;;20.61;64.95;100194.72;2394858;73;22249;-74
2023/10/12 02:10:43;;;;;;;12.75;5.78;;;;;;;20.61;65.00;100198.75;2396202;73;51562;-74
2023/10/12 02:13:50;;;;;;;14.50;5.00;;;;;;;20.60;64.95;100198.42;2396656;73;22128;-75
2023/10/12 02:16:55;;;;;;;11.03;5.62;;;;;;;20.60;64.98;100201.11;2422371;73;24916;-74
2023/10/12 02:19:57;;;;;;;16.37;5.33;;;;;;;20.61;65.02;100208.16;2396116;73;49610;-74
2023/10/12 02:23:04;;;;;;;13.25;5.00;;;;;;;20.61;64.92;100207.64;2395854;73;50551;-74
2023/10/12 02:29:35;;;;;;;15.18;5.72;;;;;;;20.61;64.90;100204.95;2400318;73;22306;-73
2023/10/12 02:32:46;;;;;;;10.95;5.47;;;;;;;20.61;65.09;100196.06;2423019;73;22459;-74
2023/10/12 02:35:44;;;;;;;12.98;5.40;;;;;;;20.60;64.88;100197.93;2419644;71;22406;-74
2023/10/12 02:38:42;;;;;;;13.53;4.97;;;;;;;20.61;64.98;100216.22;2421283;73;22374;-73
2023/10/12 02:41:51;;;;;;;19.20;5.17;;;;;;;20.60;65.01;100215.41;2424366;73;51524;-73
2023/10/12 02:48:04;;;;;;;12.18;4.92;;;;;;;20.61;64.95;100223.77;2422260;73;22183;-74
2023/10/12 02:51:06;;;;;;;14.38;5.47;;;;;;;20.63;64.88;100224.91;2421198;73;22765;-75
2023/10/12 02:54:07;;;;;;;14.33;5.12;;;;;;;20.62;64.87;100222.72;2395961;73;22369;-74
2023/10/12 02:57:09;;;;;;;12.60;5.37;;;;;;;20.62;64.91;100235.34;2424185;72;50333;-73
2023/10/12 03:00:32;;;;;;;14.95;4.83;;;;;;;20.62;64.91;100232.65;2422207;73;50631;-74
2023/10/12 03:03:24;;;;;;;12.30;5.65;;;;;;;20.62;64.96;100230.78;2364266;73;22952;-72
2023/10/12 13:30:11;;;;;;;10.68;3.60;;;;;;;20.01;65.82;100757.27;2386299;72;24848;-77
2023/10/12 13:33:13;;;;;;;25.45;3.35;;;;;;;20.00;65.55;100759.13;2338651;75;49898;-80
2023/10/12 13:36:16;;;;;;;13.62;3.50;;;;;;;20.04;65.43;100750.20;2290196;75;51439;-77
2023/10/12 13:39:18;;;;;;;12.73;3.27;;;;;;;20.09;65.31;100742.41;2324411;75;51364;-78
2023/10/12 13:42:21;;;;;;;11.35;3.35;;;;;;;20.13;65.11;100743.67;2279309;75;52395;-77
2023/10/12 13:45:28;;;;;;;14.63;2.98;;;;;;;20.19;64.97;100752.33;2318982;76;51375;-76
2023/10/12 13:48:28;;;;;;;13.80;2.98;;;;;;;20.25;64.79;100744.01;2314395;75;22401;-76
2023/10/12 13:51:36;;;;;;;15.68;3.02;;;;;;;20.33;64.53;100741.70;2289724;75;52364;-77
2023/10/12 13:54:34;;;;;;;11.10;3.17;;;;;;;20.37;64.41;100741.13;2327640;75;22438;-79
2023/10/12 13:57:37;;;;;;;13.45;2.90;;;;;;;20.38;64.26;100752.70;2285700;75;50535;-79
2023/10/12 14:00:39;;;;;;;9.90;2.70;;;;;;;20.42;64.18;100743.22;2276323;76;50297;-80
2023/10/12 14:03:45;;;;;;;11.95;2.92;;;;;;;20.43;64.09;100750.28;2305396;75;50556;-80
2023/10/12 14:06:45;;;;;;;8.00;3.20;;;;;;;20.45;64.03;100746.89;2319533;76;22390;-79
2023/10/12 14:09:48;;;;;;;11.45;3.02;;;;;;;20.48;63.92;100747.84;2298044;76;50315;-78
2023/10/12 14:12:53;;;;;;;15.88;3.83;;;;;;;20.51;63.76;100743.41;2319381;76;51735;-79
2023/10/12 14:15:55;;;;;;;8.95;2.95;;;;;;;20.51;63.75;100742.59;2300150;76;22296;-78
2023/10/12 14:18:57;;;;;;;6.45;2.75;;;;;;;20.51;63.71;100736.70;2335972;76;51382;-79
2023/10/12 14:22:03;;;;;;;10.43;2.83;;;;;;;20.50;63.67;100732.84;2260789;76;51413;-78
2023/10/12 14:25:07;;;;;;;7.53;2.98;;;;;;;20.51;63.62;100727.29;2280498;75;22337;-78
2023/10/12 14:28:07;;;;;;;7.78;2.72;;;;;;;20.53;63.61;100726.59;2348928;75;22655;-77
2023/10/12 14:31:09;;;;;;;6.85;3.12;;;;;;;20.54;63.39;100728.76;2300373;76;50910;-77
2023/10/12 14:34:13;;;;;;;21.60;3.42;;;;;;;20.52;63.39;100724.08;2295102;76;51394;-76
2023/10/12 14:37:16;;;;;;;17.98;3.20;;;;;;;20.51;63.56;100724.60;2321465;76;50697;-76
2023/10/12 14:40:19;;;;;;;8.75;3.12;;;;;;;20.50;63.87;100728.81;2282472;75;52251;-76
2023/10/12 14:43:23;;;;;;;15.18;3.47;;;;;;;20.52;63.90;100730.28;2303740;77;50704;-76
2023/10/12 14:46:29;;;;;;;15.00;3.35;;;;;;;20.53;63.73;100731.97;2303948;77;51500;-76
2023/10/12 14:49:33;;;;;;;;;;;;;;;20.53;63.61;100725.77;2306649;77;51450;-77
2023/10/12 14:52:42;;;;;;;13.72;3.30;;;;;;;20.55;63.46;100727.75;2303836;77;51641;-76
2023/10/12 14:55:44;;;;;;;14.55;3.33;;;;;;;20.53;63.51;100727.94;2303870;77;50202;-76
2023/10/12 14:58:46;;;;;;;16.65;3.37;;;;;;;20.52;63.54;100729.45;2279933;77;50571;-77
2023/10/12 15:01:51;;;;;;;16.65;3.40;;;;;;;20.49;63.60;100730.67;2253656;77;51361;-77
2023/10/12 15:04:52;;;;;;;10.13;3.05;;;;;;;20.50;63.74;100730.16;2279040;77;22242;-75
2023/10/12 15:07:56;;;;;;;18.23;3.25;;;;;;;20.48;63.63;100730.38;2262415;76;50545;-80
2023/10/12 15:10:59;;;;;;;15.05;3.05;;;;;;;20.48;63.65;100738.44;2317156;76;51392;-78
2023/10/12 15:14:01;;;;;;;21.80;3.52;;;;;;;20.51;63.62;100729.98;2269345;76;51206;-76
2023/10/12 15:17:06;;;;;;;18.10;3.33;;;;;;;20.53;63.71;100725.77;2322916;76;50535;-77
2023/10/12 15:20:09;;;;;;;20.00;3.65;;;;;;;20.61;63.67;100722.44;2295565;76;22906;-75
2023/10/12 15:23:12;;;;;;;21.15;4.55;;;;;;;20.64;63.66;100720.70;2294954;76;51531;-76
2023/10/12 15:26:16;;;;;;;36.83;4.08;;;;;;;20.69;63.54;100715.27;2294797;76;51450;-76
2023/10/12 15:29:19;;;;;;;30.27;4.83;;;;;;;20.70;63.60;100723.64;2312586;76;52470;-76
2023/10/12 15:32:21;;;;;;;25.72;4.25;;;;;;;20.63;63.81;100717.70;2277498;77;50344;-76
2023/10/12 15:35:26;;;;;;;34.45;5.20;;;;;;;20.63;63.89;100721.74;2282593;76;51304;-77
2023/10/12 15:38:31;;;;;;;28.87;4.53;;;;;;;20.62;63.88;100725.44;2263189;77;49558;-79
2023/10/12 15:41:33;;;;;;;41.05;4.65;;;;;;;20.64;63.82;100728.77;2276060;77;52762;-79
2023/10/12 15:44:39;;;;;;;42.75;4.55;;;;;;;20.62;63.84;100731.33;2252824;77;50706;-78
2023/10/12 15:47:40;;;;;;;33.10;4.33;;;;;;;20.60;63.82;100727.52;2278353;77;22254;-76
2023/10/12 15:50:42;;;;;;;21.48;4.05;;;;;;;20.58;63.87;100734.94;2298756;77;51489;-76
2023/10/12 15:53:44;;;;;;;22.27;4.28;;;;;;;20.57;63.80;100740.49;2274671;77;51431;-76
2023/10/12 15:56:46;;;;;;;27.40;4.08;;;;;;;20.56;63.93;100740.19;2277100;77;51196;-78
2023/10/12 15:59:49;;;;;;;31.75;4.75;;;;;;;20.57;63.96;100740.49;2274954;77;50167;-79
2023/10/12 16:02:55;;;;;;;24.35;4.47;;;;;;;20.55;63.94;100738.02;2298475;76;50352;-78
2023/10/12 16:05:57;;;;;;;32.45;4.50;;;;;;;20.58;63.94;100747.03;2298761;77;50581;-78
2023/10/12 16:08:59;;;;;;;31.70;4.58;;;;;;;20.60;63.78;100743.64;2289349;77;51211;-78
2023/10/12 16:12:03;;;;;;;31.68;4.05;;;;;;;20.60;63.84;100736.92;2252976;77;51170;-78
2023/10/12 16:15:05;;;;;;;21.37;4.33;;;;;;;20.60;63.75;100736.92;2299275;76;51512;-79
2023/10/12 16:18:09;;;;;;;32.95;4.78;;;;;;;20.64;63.76;100750.28;2299463;76;50163;-77
2023/10/12 16:21:12;;;;;;;34.45;4.78;;;;;;;20.64;63.53;100740.87;2253690;76;50723;-76
2023/10/12 16:24:16;;;;;;;48.35;5.62;;;;;;;20.61;63.60;100735.06;2298899;77;52037;-76
2023/10/12 16:27:18;;;;;;;78.52;7.55;;;;;;;20.59;63.74;100741.14;2276134;77;22409;-78
2023/10/12 16:30:20;;;;;;;74.07;7.62;;;;;;;20.58;63.80;100743.00;2302723;76;50142;-77
2023/10/12 16:33:23;;;;;;;75.78;8.25;;;;;;;20.60;63.87;100743.64;2313601;76;50162;-77
2023/10/12 16:36:25;;;;;;;63.35;7.00;;;;;;;20.68;63.83;100750.74;2338477;76;50215;-79
2023/10/12 16:39:28;;;;;;;71.15;7.22;;;;;;;20.64;63.73;100740.87;2296887;76;50609;-78
2023/10/12 16:42:30;;;;;;;61.75;7.35;;;;;;;20.62;63.80;100743.43;2314173;76;50969;-77
2023/10/12 16:45:33;;;;;;;51.63;6.22;;;;;;;20.60;63.81;100744.13;2288064;76;50516;-77
2023/10/12 16:48:35;;;;;;;59.03;6.58;;;;;;;20.57;63.82;100739.97;2338265;76;51566;-78
2023/10/12 16:51:38;;;;;;;48.35;6.28;;;;;;;20.55;63.94;100735.33;2327788;76;52494;-78
2023/10/12 16:54:40;;;;;;;42.65;6.42;;;;;;;20.54;63.83;100740.37;2287846;76;50297;-79
2023/10/12 16:57:43;;;;;;;48.73;6.45;;;;;;;20.54;63.89;100751.61;2327759;76;52279;-77
2023/10/12 17:00:45;;;;;;;33.80;5.20;;;;;;;20.54;63.93;100760.53;2314009;76;51084;-77
2023/10/12 17:03:47;;;;;;;42.90;6.45;;;;;;;20.53;63.95;100754.81;2287923;76;50691;-77
2023/10/12 17:06:50;;;;;;;47.70;5.97;;;;;;;20.52;64.02;100758.51;2261566;75;50878;-78
2023/10/12 17:09:55;;;;;;;37.17;5.70;;;;;;;20.52;64.00;100752.30;2319935;75;50211;-77
2023/10/12 17:12:57;;;;;;;;;;;;;;;20.51;63.97;100760.89;2361388;74;50564;-78
2023/10/12 17:16:00;;;;;;;40.67;5.95;;;;;;;20.54;63.79;100758.33;2324065;75;51510;-77
2023/10/12 17:19:03;;;;;;;43.63;6.03;;;;;;;20.51;63.93;100767.61;2359263;75;50582;-77
2023/10/12 17:22:06;;;;;;;48.05;5.67;;;;;;;20.53;63.77;100770.94;2323469;75;50590;-78
2023/10/12 17:25:10;;;;;;;62.05;5.78;;;;;;;20.53;63.81;100782.22;2296972;75;52274;-78
2023/10/12 17:28:12;;;;;;;45.98;6.00;;;;;;;20.52;63.83;100780.02;2359196;75;50663;-78
2023/10/12 17:31:15;;;;;;;46.98;6.20;;;;;;;20.51;64.07;100785.08;2322768;75;50364;-77
2023/10/12 17:34:17;;;;;;;44.95;6.20;;;;;;;20.53;63.94;100792.97;2324556;75;50589;-79
2023/10/12 17:37:20;;;;;;;54.53;6.05;;;;;;;20.52;64.04;100793.45;2317652;75;51378;-73
2023/10/12 17:40:23;;;;;;;46.18;6.37;;;;;;;20.53;63.94;100791.62;2290008;76;51597;-75
2023/10/12 17:43:30;;;;;;;48.83;6.75;;;;;;;20.53;64.06;100783.04;2280203;76;50679;-76
2023/10/12 17:46:30;;;;;;;48.95;5.75;;;;;;;20.55;63.90;100786.41;2285032;75;22438;-73
2023/10/12 17:49:32;;;;;;;42.83;6.35;;;;;;;20.59;63.80;100784.15;2301034;75;51173;-74
2023/10/12 17:52:34;;;;;;;59.90;6.92;;;;;;;20.58;63.82;100794.08;2316566;74;50304;-76
2023/10/12 17:55:37;;;;;;;57.38;6.08;;;;;;;20.58;63.80;100796.77;2291629;75;50801;-78
2023/10/12 17:58:39;;;;;;;50.98;5.90;;;;;;;20.61;63.83;100797.72;2291684;75;50727;-77
2023/10/12 18:01:42;;;;;;;51.98;6.72;;;;;;;20.60;63.73;100804.62;2291576;75;51341;-77
2023/10/12 18:04:46;;;;;;;54.65;6.80;;;;;;;20.57;63.77;100802.33;2303235;75;50983;-76
2023/10/12 18:07:53;;;;;;;60.75;6.83;;;;;;;20.53;64.03;100800.52;2323685;75;50328;-75
2023/10/12 18:10:52;;;;;;;51.65;6.70;;;;;;;20.50;64.20;100791.50;2324022;75;22347;-76
2023/10/12 18:13:54;;;;;;;46.42;6.28;;;;;;;20.47;64.31;100776.24;2291423;75;52521;-77
2023/10/12 18:16:57;;;;;;;51.77;6.95;;;;;;;20.48;64.29;100778.75;2356837;75;51364;-77
2023/10/12 18:19:59;;;;;;;34.53;7.53;;;;;;;20.48;64.19;100780.09;2312340;76;50316;-78
2023/10/12 18:23:05;;;;;;;50.23;9.33;;;;;;;20.48;64.19;100780.09;2280803;76;50209;-75
2023/10/12 18:26:05;;;;;;;51.20;7.80;;;;;;;20.47;64.20;100786.48;2281409;76;22318;-77
2023/10/12 18:29:08;;;;;;;41.92;8.20;;;;;;;20.51;64.70;100787.77;2316048;76;50195;-76
2023/10/12 18:32:10;;;;;;;45.25;8.25;;;;;;;20.51;65.06;100786.95;2304757;76;50388;-75
2023/10/12 18:35:13;;;;;;;47.85;8.45;;;;;;;20.52;65.08;100781.36;2339921;76;52479;-73
2023/10/12 18:38:15;;;;;;;42.08;9.23;;;;;;;20.54;65.23;100786.55;2257616;76;52480;-71
2023/10/12 18:41:17;;;;;;;46.68;8.80;;;;;;;20.56;65.87;100788.58;2339921;76;51380;-71
2023/10/12 18:44:20;;;;;;;40.17;8.03;;;;;;;20.57;65.36;100774.92;2339702;76;51433;-72
2023/10/12 18:47:27;;;;;;;40.98;8.65;;;;;;;20.59;65.24;100774.74;2290846;74;50350;-72
2023/10/12 18:50:28;;;;;;;44.00;8.95;;;;;;;20.56;65.25;100786.71;2335063;74;22484;-72
2023/10/12 18:53:30;;;;;;;44.48;9.70;;;;;;;20.55;65.47;100787.75;2339384;74;49523;-70
2023/10/12 18:56:32;;;;;;;30.80;8.60;;;;;;;20.58;65.49;100787.88;2361967;74;51364;-70
2023/10/12 18:59:35;;;;;;;58.35;9.85;;;;;;;20.57;65.58;100774.92;2312523;74;51400;-70
2023/10/12 19:02:37;;;;;;;51.28;10.13;;;;;;;20.59;65.65;100773.40;2323818;76;51773;-72
2023/10/12 19:05:40;;;;;;;58.73;10.93;;;;;;;20.58;65.73;100774.44;2319014;74;51340;-71
2023/10/12 19:08:43;;;;;;;43.40;9.60;;;;;;;20.59;65.77;100782.81;2322769;74;51465;-71
2023/10/12 19:11:45;;;;;;;44.98;10.72;;;;;;;20.59;65.68;100780.95;2349216;74;51515;-71
2023/10/12 19:14:47;;;;;;;47.48;9.08;;;;;;;20.60;65.78;100787.14;2365475;74;51392;-70
2023/10/12 19:17:50;;;;;;;43.42;9.95;;;;;;;20.63;65.85;100782.75;2306790;76;52540;-70
2023/10/12 19:20:58;;;;;;;31.48;8.90;;;;;;;20.63;65.84;100781.41;2361317;74;51471;-71
2023/10/12 19:24:00;;;;;;;41.77;10.85;;;;;;;20.63;65.88;100777.38;2357259;74;51538;-72
2023/10/12 19:27:03;;;;;;;48.23;10.78;;;;;;;20.63;65.94;100774.69;2335458;74;51074;-71
2023/10/12 19:30:09;;;;;;;38.88;9.50;;;;;;;20.62;65.90;100779.20;2321784;74;51506;-72
2023/10/12 19:33:11;;;;;;;;;;;;;;;20.63;65.96;100786.27;2359514;74;22350;-69
2023/10/12 19:36:13;;;;;;;33.53;9.93;;;;;;;20.64;65.92;100789.78;2331078;74;52456;-71
2023/10/12 19:39:17;;;;;;;34.05;10.10;;;;;;;20.62;66.08;100792.65;2365776;74;50244;-70
2023/10/12 19:42:19;;;;;;;36.90;10.60;;;;;;;20.63;66.01;100784.92;2370700;74;51734;-72
2023/10/12 19:45:29;;;;;;;37.42;9.38;;;;;;;20.62;66.05;100794.00;2337031;74;51500;-70
2023/10/12 19:48:26;;;;;;;34.63;10.18;;;;;;;20.63;66.08;100803.74;2359720;74;22447;-69
2023/10/12 19:51:31;;;;;;;41.25;10.13;;;;;;;20.64;66.02;100800.02;2330554;74;51745;-71
2023/10/12 19:54:32;;;;;;;34.05;9.75;;;;;;;20.66;65.99;100795.80;2318439;74;22879;-72
2023/10/12 19:57:35;;;;;;;42.53;11.57;;;;;;;20.64;66.06;100789.78;2338790;74;51469;-70
2023/10/12 20:00:40;;;;;;;41.20;11.55;;;;;;;20.66;66.06;100778.33;2331936;74;51447;-73
2023/10/12 20:03:45;;;;;;;31.07;10.48;;;;;;;20.63;66.25;100784.92;2360481;74;22345;-70
2023/10/12 20:06:46;;;;;;;31.00;10.20;;;;;;;20.64;66.23;100783.06;2363834;74;22421;-71
2023/10/12 20:09:49;;;;;;;33.80;9.75;;;;;;;20.64;66.21;100794.64;2326097;74;50602;-72
2023/10/12 20:12:53;;;;;;;35.05;11.08;;;;;;;20.63;66.22;100807.77;2341923;74;51656;-70
2023/10/12 20:15:55;;;;;;;39.80;10.85;;;;;;;20.64;66.20;100805.39;2324826;74;51770;-71
2023/10/12 20:18:58;;;;;;;36.13;10.13;;;;;;;20.67;66.26;100801.48;2320377;76;51451;-70
2023/10/12 20:22:02;;;;;;;36.20;10.55;;;;;;;20.66;66.26;100802.00;2341708;76;50389;-70
2023/10/12 20:25:05;;;;;;;28.70;10.25;;;;;;;20.67;66.28;100793.42;2284403;76;50714;-71
2023/10/12 20:28:08;;;;;;;43.48;10.08;;;;;;;20.69;66.28;100807.51;2342209;76;51444;-69
2023/10/12 20:31:10;;;;;;;35.73;10.90;;;;;;;20.63;66.57;100805.09;2283882;74;50291;-72
2023/10/12 20:34:12;;;;;;;46.60;11.08;;;;;;;20.59;66.60;100814.55;2302726;75;50321;-73
2023/10/12 20:37:14;;;;;;;41.02;11.33;;;;;;;20.58;66.82;100814.24;2317331;75;50174;-72
2023/10/12 20:40:18;;;;;;;42.78;11.55;;;;;;;20.60;66.76;100821.61;2303642;75;51623;-72
2023/10/12 20:43:22;;;;;;;42.55;11.10;;;;;;;20.59;66.92;100813.20;2292340;75;51930;-72
2023/10/12 20:46:24;;;;;;;44.73;12.10;;;;;;;20.58;66.91;100811.55;2320446;75;22202;-72
2023/10/12 20:49:28;;;;;;;41.77;11.50;;;;;;;20.64;67.99;100813.98;2246930;76;52455;-72
2023/10/12 20:52:30;;;;;;;39.08;11.05;;;;;;;20.63;67.32;100810.47;2318821;76;49752;-71
2023/10/12 20:55:35;;;;;;;51.10;12.65;;;;;;;20.60;67.13;100811.34;2247630;76;51483;-71
2023/10/12 20:58:44;;;;;;;33.30;11.22;;;;;;;20.60;66.87;100808.16;2271967;76;50223;-71
2023/10/12 21:01:46;;;;;;;42.90;11.18;;;;;;;20.56;66.62;100800.16;2325624;75;50633;-71
2023/10/12 21:04:51;;;;;;;33.33;10.70;;;;;;;20.55;66.67;100801.68;2297583;76;52390;-71
2023/10/12 21:07:56;;;;;;;37.98;10.63;;;;;;;20.54;66.44;100810.27;2319048;76;50391;-72
2023/10/12 21:11:01;;;;;;;29.55;10.45;;;;;;;20.57;66.35;100804.49;2318876;76;50510;-71
2023/10/12 21:14:07;;;;;;;35.75;11.63;;;;;;;20.54;66.62;100810.27;2236165;76;52557;-72
2023/10/12 21:17:07;;;;;;;27.67;9.75;;;;;;;20.57;66.48;100804.49;2317804;76;22261;-74
2023/10/12 21:20:32;;;;;;;28.55;10.65;;;;;;;20.57;67.10;100810.39;2259501;76;51306;-74
2023/10/12 21:23:20;;;;;;;31.35;10.13;;;;;;;20.57;66.66;100808.52;2258322;76;22265;-73
2023/10/12 21:26:27;;;;;;;31.37;9.45;;;;;;;20.58;66.68;100802.14;2260195;76;22528;-71
2023/10/12 21:29:32;;;;;;;28.42;9.53;;;;;;;20.60;66.82;100808.66;2310109;76;51128;-72
2023/10/12 21:32:33;;;;;;;24.95;9.28;;;;;;;20.58;66.74;100806.17;2272142;76;22353;-72
2023/10/12 21:35:41;;;;;;;33.23;9.83;;;;;;;20.60;66.88;100806.83;2318856;75;50536;-72
2023/10/12 21:38:41;;;;;;;29.95;9.78;;;;;;;20.59;66.29;100802.45;2298256;75;22724;-72
2023/10/12 21:41:43;;;;;;;29.45;10.10;;;;;;;20.59;66.67;100806.48;2358741;75;50609;-72
2023/10/12 21:44:45;;;;;;;25.08;8.63;;;;;;;20.58;66.91;100806.17;2350281;75;50047;-73
2023/10/12 21:47:47;;;;;;;34.45;10.35;;;;;;;20.60;66.75;100798.76;2297953;75;51379;-71
2023/10/12 21:50:51;;;;;;;27.70;10.15;;;;;;;20.59;67.27;100790.88;2297954;75;51438;-71
2023/10/12 21:53:53;;;;;;;25.48;8.58;;;;;;;20.59;66.98;100784.98;2323213;75;51708;-73
2023/10/12 21:56:55;;;;;;;29.23;10.10;;;;;;;20.58;67.39;100777.13;2322767;75;51367;-71
2023/10/12 21:59:58;;;;;;;30.27;9.73;;;;;;;20.60;67.23;100788.49;2350570;75;50412;-73
2023/10/12 22:03:00;;;;;;;34.40;9.60;;;;;;;20.59;67.54;100784.98;2298921;76;51171;-73
2023/10/12 22:06:02;;;;;;;30.75;9.25;;;;;;;20.60;67.62;100780.42;2260058;76;50571;-74
2023/10/12 22:09:04;;;;;;;29.63;9.38;;;;;;;20.59;67.61;100791.70;2285031;76;51451;-73
2023/10/12 22:12:08;;;;;;;33.20;9.18;;;;;;;20.56;68.11;100779.17;2260057;76;50293;-74
2023/10/12 22:15:14;;;;;;;33.18;10.03;;;;;;;20.56;67.96;100785.37;2285337;76;50630;-74
2023/10/12 22:18:15;;;;;;;;;;;;;;;20.56;67.75;100776.48;2273469;76;51346;-73
2023/10/12 22:21:18;;;;;;;27.50;9.68;;;;;;;20.58;67.92;100783.33;2310663;75;50582;-72
2023/10/12 22:24:21;;;;;;;18.73;7.92;;;;;;;20.57;67.75;100776.78;2259841;76;50337;-73
2023/10/12 22:27:26;;;;;;;31.27;9.23;;;;;;;20.61;67.27;100772.70;2260499;76;51476;-72
2023/10/12 22:30:29;;;;;;;27.75;9.00;;;;;;;20.59;67.79;100782.81;2285517;76;22302;-72
2023/10/12 22:33:31;;;;;;;31.42;9.58;;;;;;;20.55;67.78;100783.72;2316153;75;49974;-72
2023/10/12 22:36:35;;;;;;;26.45;8.88;;;;;;;20.55;67.82;100783.72;2310593;75;51534;-72
2023/10/12 22:39:38;;;;;;;26.42;8.93;;;;;;;20.54;67.90;100772.63;2308829;76;50082;-72
2023/10/12 22:42:42;;;;;;;42.38;9.83;;;;;;;20.52;68.01;100777.33;2344627;75;51470;-72
2023/10/12 22:45:44;;;;;;;34.10;9.90;;;;;;;20.54;68.14;100779.34;2336745;75;51054;-72
2023/10/12 22:48:46;;;;;;;33.88;9.55;;;;;;;20.52;68.38;100779.19;2308961;76;51389;-71
2023/10/12 22:51:48;;;;;;;30.10;8.83;;;;;;;20.52;68.41;100772.47;2310273;76;51527;-72
2023/10/12 22:54:50;;;;;;;32.17;9.88;;;;;;;20.51;68.36;100768.95;2283159;76;51079;-73
2023/10/12 22:57:53;;;;;;;22.02;9.00;;;;;;;20.51;68.61;100772.16;2309184;76;50140;-73
2023/10/12 23:01:00;;;;;;;28.07;9.10;;;;;;;20.49;68.43;100772.34;2334774;75;50156;-72
2023/10/12 23:03:59;;;;;;;27.02;10.15;;;;;;;20.51;68.48;100766.78;2255183;77;21872;-72
2023/10/12 23:07:01;;;;;;;24.00;9.23;;;;;;;20.50;68.79;100759.73;2227030;77;51459;-72
2023/10/12 23:10:05;;;;;;;26.70;8.05;;;;;;;20.50;68.66;100770.48;2240491;77;51231;-72
2023/10/12 23:13:07;;;;;;;24.95;7.85;;;;;;;20.50;68.56;100775.85;2252219;77;51505;-72
2023/10/12 23:16:22;;;;;;;25.30;8.78;;;;;;;20.49;68.75;100775.03;2264308;77;51382;-72
2023/10/12 23:19:15;;;;;;;25.45;8.28;;;;;;;20.51;68.72;100774.84;2299211;77;22948;-72
2023/10/12 23:22:50;;;;;;;24.25;8.60;;;;;;;20.50;68.86;100775.85;2276785;77;51393;-72
2023/10/12 23:25:27;;;;;;;25.12;8.75;;;;;;;20.50;68.83;100767.30;2290887;77;22734;-73
2023/10/12 23:28:29;;;;;;;22.15;7.95;;;;;;;20.51;68.79;100768.13;2251931;77;50373;-73
2023/10/12 23:31:35;;;;;;;20.77;7.70;;;;;;;20.49;68.97;100773.69;2310899;76;50249;-71
2023/10/12 23:34:45;;;;;;;20.75;8.00;;;;;;;20.51;68.99;100782.91;2318608;75;22330;-71
2023/10/12 23:37:58;;;;;;;21.30;8.15;;;;;;;20.49;69.04;100783.09;2303313;77;22497;-73
2023/10/12 23:50:50;;;;;;;20.40;7.50;;;;;;;20.49;68.92;100775.03;2303870;77;23083;-73
2023/10/12 23:53:46;;;;;;;20.20;7.60;;;;;;;20.51;68.96;100775.67;2254868;77;22330;-73
2023/10/12 23:57:02;;;;;;;17.95;7.75;;;;;;;20.52;68.96;100776.50;2279726;77;22359;-73
